sensor_id;sensor_type;location;lat;lon;timestamp;temperature;humidity
4354;DHT22;11018;51.258;6.806;2022-10-19T00:02:02;8.90;99.90
4354;DHT22;11018;51.258;6.806;2022-10-19T00:04:28;8.70;99.90
4354;DHT22;11018;51.258;6.806;2022-10-19T00:06:54;8.70;99.90
4354;DHT22;11018;51.258;6.806;2022-10-19T00:09:19;8.50;99.90
4354;DHT22;11018;51.258;6.806;2022-10-19T00:11:47;8.50;99.90
4354;DHT22;11018;51.258;6.806;2022-10-19T00:14:19;8.60;99.90
4354;DHT22;11018;51.258;6.806;2022-10-19T00:16:46;8.60;99.90
4354;DHT22;11018;51.258;6.806;2022-10-19T00:19:15;8.70;99.90
4354;DHT22;11018;51.258;6.806;2022-10-19T00:21:41;8.80;99.90
4354;DHT22;11018;51.258;6.806;2022-10-19T00:24:07;9.00;99.90
4354;DHT22;11018;51.258;6.806;2022-10-19T00:26:33;8.90;99.90
4354;DHT22;11018;51.258;6.806;2022-10-19T00:28:59;8.90;99.90
4354;DHT22;11018;51.258;6.806;2022-10-19T00:31:25;8.90;99.90
4354;DHT22;11018;51.258;6.806;2022-10-19T00:33:52;8.70;99.90
4354;DHT22;11018;51.258;6.806;2022-10-19T00:36:19;8.60;99.90
4354;DHT22;11018;51.258;6.806;2022-10-19T00:38:45;8.70;99.90
4354;DHT22;11018;51.258;6.806;2022-10-19T00:41:11;8.80;99.90
4354;DHT22;11018;51.258;6.806;2022-10-19T00:46:40;9.10;99.90
4354;DHT22;11018;51.258;6.806;2022-10-19T00:51:36;8.80;99.90
4354;DHT22;11018;51.258;6.806;2022-10-19T00:54:05;8.60;99.90
4354;DHT22;11018;51.258;6.806;2022-10-19T00:56:31;8.40;99.90
4354;DHT22;11018;51.258;6.806;2022-10-19T00:58:57;8.30;99.90
4354;DHT22;11018;51.258;6.806;2022-10-19T01:01:23;8.30;99.90
4354;DHT22;11018;51.258;6.806;2022-10-19T01:03:51;8.40;99.90
4354;DHT22;11018;51.258;6.806;2022-10-19T01:06:17;8.60;99.90
4354;DHT22;11018;51.258;6.806;2022-10-19T01:08:44;8.60;99.90
4354;DHT22;11018;51.258;6.806;2022-10-19T01:14:09;8.70;99.90
4354;DHT22;11018;51.258;6.806;2022-10-19T01:25:22;8.30;99.90
4354;DHT22;11018;51.258;6.806;2022-10-19T01:30:57;8.20;99.90
4354;DHT22;11018;51.258;6.806;2022-10-19T01:33:31;8.10;99.90
4354;DHT22;11018;51.258;6.806;2022-10-19T01:36:08;8.40;99.90
4354;DHT22;11018;51.258;6.806;2022-10-19T01:38:46;8.60;99.90
4354;DHT22;11018;51.258;6.806;2022-10-19T01:41:43;8.60;99.90
4354;DHT22;11018;51.258;6.806;2022-10-19T01:44:15;8.60;99.90
4354;DHT22;11018;51.258;6.806;2022-10-19T01:47:01;8.60;99.90
4354;DHT22;11018;51.258;6.806;2022-10-19T01:49:37;8.80;99.90
4354;DHT22;11018;51.258;6.806;2022-10-19T01:52:06;8.80;99.90
4354;DHT22;11018;51.258;6.806;2022-10-19T01:54:37;8.70;99.90
4354;DHT22;11018;51.258;6.806;2022-10-19T01:57:06;8.80;99.90
4354;DHT22;11018;51.258;6.806;2022-10-19T01:59:33;8.60;99.90
4354;DHT22;11018;51.258;6.806;2022-10-19T02:02:02;8.40;99.90
4354;DHT22;11018;51.258;6.806;2022-10-19T02:04:29;8.50;99.90
4354;DHT22;11018;51.258;6.806;2022-10-19T02:06:56;8.50;99.90
4354;DHT22;11018;51.258;6.806;2022-10-19T02:09:22;8.40;99.90
4354;DHT22;11018;51.258;6.806;2022-10-19T02:11:53;8.20;99.90
4354;DHT22;11018;51.258;6.806;2022-10-19T02:14:24;8.40;99.90
4354;DHT22;11018;51.258;6.806;2022-10-19T02:16:56;8.40;99.90
4354;DHT22;11018;51.258;6.806;2022-10-19T02:19:23;8.10;99.90
4354;DHT22;11018;51.258;6.806;2022-10-19T02:21:50;7.90;99.90
4354;DHT22;11018;51.258;6.806;2022-10-19T02:24:16;7.90;99.90
4354;DHT22;11018;51.258;6.806;2022-10-19T02:26:42;7.80;99.90
4354;DHT22;11018;51.258;6.806;2022-10-19T02:29:09;8.10;99.90
4354;DHT22;11018;51.258;6.806;2022-10-19T02:31:35;8.40;99.90
4354;DHT22;11018;51.258;6.806;2022-10-19T02:34:01;8.20;99.90
4354;DHT22;11018;51.258;6.806;2022-10-19T02:36:27;8.20;99.90
4354;DHT22;11018;51.258;6.806;2022-10-19T02:38:52;8.20;99.90
4354;DHT22;11018;51.258;6.806;2022-10-19T02:41:37;8.20;99.90
4354;DHT22;11018;51.258;6.806;2022-10-19T02:44:09;8.20;99.90
4354;DHT22;11018;51.258;6.806;2022-10-19T02:46:43;8.10;99.90
4354;DHT22;11018;51.258;6.806;2022-10-19T02:49:09;7.90;99.90
4354;DHT22;11018;51.258;6.806;2022-10-19T02:54:22;7.80;99.90
4354;DHT22;11018;51.258;6.806;2022-10-19T02:56:48;7.70;99.90
4354;DHT22;11018;51.258;6.806;2022-10-19T02:59:13;7.60;99.90
4354;DHT22;11018;51.258;6.806;2022-10-19T03:01:39;7.50;99.90
4354;DHT22;11018;51.258;6.806;2022-10-19T03:04:04;7.50;99.90
4354;DHT22;11018;51.258;6.806;2022-10-19T03:06:30;7.40;99.90
4354;DHT22;11018;51.258;6.806;2022-10-19T03:08:56;7.60;99.90
4354;DHT22;11018;51.258;6.806;2022-10-19T03:11:21;7.80;99.90
4354;DHT22;11018;51.258;6.806;2022-10-19T03:13:47;7.90;99.90
4354;DHT22;11018;51.258;6.806;2022-10-19T03:16:12;8.00;99.90
4354;DHT22;11018;51.258;6.806;2022-10-19T03:18:38;7.80;99.90
4354;DHT22;11018;51.258;6.806;2022-10-19T03:21:13;7.60;99.90
4354;DHT22;11018;51.258;6.806;2022-10-19T03:23:39;7.50;99.90
4354;DHT22;11018;51.258;6.806;2022-10-19T03:26:06;7.40;99.90
4354;DHT22;11018;51.258;6.806;2022-10-19T03:28:32;7.40;99.90
4354;DHT22;11018;51.258;6.806;2022-10-19T03:30:58;7.60;99.90
4354;DHT22;11018;51.258;6.806;2022-10-19T03:33:24;7.80;99.90
4354;DHT22;11018;51.258;6.806;2022-10-19T03:35:50;7.80;99.90
4354;DHT22;11018;51.258;6.806;2022-10-19T03:38:16;7.70;99.90
4354;DHT22;11018;51.258;6.806;2022-10-19T03:40:42;7.60;99.90
4354;DHT22;11018;51.258;6.806;2022-10-19T03:43:07;7.50;99.90
4354;DHT22;11018;51.258;6.806;2022-10-19T03:45:33;7.30;99.90
4354;DHT22;11018;51.258;6.806;2022-10-19T03:47:59;7.30;99.90
4354;DHT22;11018;51.258;6.806;2022-10-19T03:50:24;7.20;99.90
4354;DHT22;11018;51.258;6.806;2022-10-19T03:52:50;7.60;99.90
4354;DHT22;11018;51.258;6.806;2022-10-19T03:55:16;7.70;99.90
4354;DHT22;11018;51.258;6.806;2022-10-19T03:57:42;7.60;99.90
4354;DHT22;11018;51.258;6.806;2022-10-19T04:00:08;7.50;99.90
4354;DHT22;11018;51.258;6.806;2022-10-19T04:02:34;7.40;99.90
4354;DHT22;11018;51.258;6.806;2022-10-19T04:04:59;7.50;99.90
4354;DHT22;11018;51.258;6.806;2022-10-19T04:07:25;7.70;99.90
4354;DHT22;11018;51.258;6.806;2022-10-19T04:09:51;7.80;99.90
4354;DHT22;11018;51.258;6.806;2022-10-19T04:12:16;7.80;99.90
4354;DHT22;11018;51.258;6.806;2022-10-19T04:14:42;7.70;99.90
4354;DHT22;11018;51.258;6.806;2022-10-19T04:17:08;7.60;99.90
4354;DHT22;11018;51.258;6.806;2022-10-19T04:19:34;7.40;99.90
4354;DHT22;11018;51.258;6.806;2022-10-19T04:22:00;7.30;99.90
4354;DHT22;11018;51.258;6.806;2022-10-19T04:24:26;7.10;99.90
4354;DHT22;11018;51.258;6.806;2022-10-19T04:26:53;7.10;99.90
4354;DHT22;11018;51.258;6.806;2022-10-19T04:29:22;7.10;99.90
4354;DHT22;11018;51.258;6.806;2022-10-19T04:31:48;7.40;99.90
4354;DHT22;11018;51.258;6.806;2022-10-19T04:34:14;7.60;99.90
4354;DHT22;11018;51.258;6.806;2022-10-19T04:36:40;7.40;99.90
4354;DHT22;11018;51.258;6.806;2022-10-19T04:39:06;7.20;99.90
4354;DHT22;11018;51.258;6.806;2022-10-19T04:41:32;7.10;99.90
4354;DHT22;11018;51.258;6.806;2022-10-19T04:43:59;7.10;99.90
4354;DHT22;11018;51.258;6.806;2022-10-19T04:46:27;7.30;99.90
4354;DHT22;11018;51.258;6.806;2022-10-19T04:48:54;7.20;99.90
4354;DHT22;11018;51.258;6.806;2022-10-19T04:51:20;7.10;99.90
4354;DHT22;11018;51.258;6.806;2022-10-19T04:53:46;7.10;99.90
4354;DHT22;11018;51.258;6.806;2022-10-19T04:56:20;7.20;99.90
4354;DHT22;11018;51.258;6.806;2022-10-19T04:58:46;7.30;99.90
4354;DHT22;11018;51.258;6.806;2022-10-19T05:01:18;7.20;99.90
4354;DHT22;11018;51.258;6.806;2022-10-19T05:03:44;7.00;99.90
4354;DHT22;11018;51.258;6.806;2022-10-19T05:06:11;7.30;99.90
4354;DHT22;11018;51.258;6.806;2022-10-19T05:08:37;7.50;99.90
4354;DHT22;11018;51.258;6.806;2022-10-19T05:11:06;7.50;99.90
4354;DHT22;11018;51.258;6.806;2022-10-19T05:13:32;7.30;99.90
4354;DHT22;11018;51.258;6.806;2022-10-19T05:16:00;7.30;99.90
4354;DHT22;11018;51.258;6.806;2022-10-19T05:18:26;7.30;99.90
4354;DHT22;11018;51.258;6.806;2022-10-19T05:21:00;7.40;99.90
4354;DHT22;11018;51.258;6.806;2022-10-19T05:23:25;7.30;99.90
4354;DHT22;11018;51.258;6.806;2022-10-19T05:26:01;7.20;99.90
4354;DHT22;11018;51.258;6.806;2022-10-19T05:28:28;7.30;99.90
4354;DHT22;11018;51.258;6.806;2022-10-19T05:30:54;7.30;99.90
4354;DHT22;11018;51.258;6.806;2022-10-19T05:33:19;7.30;99.90
4354;DHT22;11018;51.258;6.806;2022-10-19T05:35:45;7.40;99.90
4354;DHT22;11018;51.258;6.806;2022-10-19T05:38:10;7.30;99.90
4354;DHT22;11018;51.258;6.806;2022-10-19T05:40:36;7.20;99.90
4354;DHT22;11018;51.258;6.806;2022-10-19T05:43:01;7.50;99.90
4354;DHT22;11018;51.258;6.806;2022-10-19T05:45:27;7.70;99.90
4354;DHT22;11018;51.258;6.806;2022-10-19T05:47:53;7.90;99.90
4354;DHT22;11018;51.258;6.806;2022-10-19T05:50:18;7.80;99.90
4354;DHT22;11018;51.258;6.806;2022-10-19T05:52:44;7.70;99.90
4354;DHT22;11018;51.258;6.806;2022-10-19T05:55:09;7.80;99.90
4354;DHT22;11018;51.258;6.806;2022-10-19T05:57:35;7.70;99.90
4354;DHT22;11018;51.258;6.806;2022-10-19T06:00:02;7.70;99.90
4354;DHT22;11018;51.258;6.806;2022-10-19T06:02:27;8.00;99.90
4354;DHT22;11018;51.258;6.806;2022-10-19T06:04:53;7.90;99.90
4354;DHT22;11018;51.258;6.806;2022-10-19T06:07:19;7.70;99.90
4354;DHT22;11018;51.258;6.806;2022-10-19T06:09:45;7.70;99.90
4354;DHT22;11018;51.258;6.806;2022-10-19T06:12:13;7.70;99.90
4354;DHT22;11018;51.258;6.806;2022-10-19T06:14:39;7.80;99.90
4354;DHT22;11018;51.258;6.806;2022-10-19T06:17:04;7.80;99.90
4354;DHT22;11018;51.258;6.806;2022-10-19T06:19:31;7.90;99.90
4354;DHT22;11018;51.258;6.806;2022-10-19T06:21:56;7.90;99.90
4354;DHT22;11018;51.258;6.806;2022-10-19T06:24:22;8.20;99.90
4354;DHT22;11018;51.258;6.806;2022-10-19T06:26:47;8.20;99.90
4354;DHT22;11018;51.258;6.806;2022-10-19T06:29:13;8.30;99.90
4354;DHT22;11018;51.258;6.806;2022-10-19T06:31:38;8.20;99.90
4354;DHT22;11018;51.258;6.806;2022-10-19T06:34:04;8.40;99.90
4354;DHT22;11018;51.258;6.806;2022-10-19T06:36:30;8.20;99.90
4354;DHT22;11018;51.258;6.806;2022-10-19T06:38:57;8.30;99.90
4354;DHT22;11018;51.258;6.806;2022-10-19T06:41:24;8.20;99.90
4354;DHT22;11018;51.258;6.806;2022-10-19T06:43:50;8.30;99.90
4354;DHT22;11018;51.258;6.806;2022-10-19T06:46:17;8.40;99.90
4354;DHT22;11018;51.258;6.806;2022-10-19T06:48:55;8.40;99.90
4354;DHT22;11018;51.258;6.806;2022-10-19T06:51:22;8.50;99.90
4354;DHT22;11018;51.258;6.806;2022-10-19T06:53:49;8.50;99.90
4354;DHT22;11018;51.258;6.806;2022-10-19T06:56:15;8.50;99.90
4354;DHT22;11018;51.258;6.806;2022-10-19T06:58:40;8.50;99.90
4354;DHT22;11018;51.258;6.806;2022-10-19T07:01:07;8.60;99.90
4354;DHT22;11018;51.258;6.806;2022-10-19T07:03:34;8.70;99.90
4354;DHT22;11018;51.258;6.806;2022-10-19T07:06:06;8.80;99.90
4354;DHT22;11018;51.258;6.806;2022-10-19T07:08:32;8.90;99.90
4354;DHT22;11018;51.258;6.806;2022-10-19T07:11:00;8.80;99.90
4354;DHT22;11018;51.258;6.806;2022-10-19T07:13:27;9.00;99.90
4354;DHT22;11018;51.258;6.806;2022-10-19T07:16:01;8.90;99.90
4354;DHT22;11018;51.258;6.806;2022-10-19T07:18:29;8.80;99.90
4354;DHT22;11018;51.258;6.806;2022-10-19T07:21:00;8.80;99.90
4354;DHT22;11018;51.258;6.806;2022-10-19T07:23:28;8.90;99.90
4354;DHT22;11018;51.258;6.806;2022-10-19T07:25:54;9.00;99.90
4354;DHT22;11018;51.258;6.806;2022-10-19T07:28:25;8.90;99.90
4354;DHT22;11018;51.258;6.806;2022-10-19T07:30:50;9.00;99.90
4354;DHT22;11018;51.258;6.806;2022-10-19T07:33:16;9.10;99.90
4354;DHT22;11018;51.258;6.806;2022-10-19T07:35:41;9.30;99.90
4354;DHT22;11018;51.258;6.806;2022-10-19T07:38:07;9.60;99.90
4354;DHT22;11018;51.258;6.806;2022-10-19T07:40:33;9.70;99.90
4354;DHT22;11018;51.258;6.806;2022-10-19T07:42:59;9.70;99.90
4354;DHT22;11018;51.258;6.806;2022-10-19T07:45:25;9.70;99.90
4354;DHT22;11018;51.258;6.806;2022-10-19T07:47:50;9.90;99.90
4354;DHT22;11018;51.258;6.806;2022-10-19T07:50:16;10.00;99.90
4354;DHT22;11018;51.258;6.806;2022-10-19T07:52:41;9.90;99.90
4354;DHT22;11018;51.258;6.806;2022-10-19T07:55:07;10.10;99.90
4354;DHT22;11018;51.258;6.806;2022-10-19T07:57:33;10.50;99.90
4354;DHT22;11018;51.258;6.806;2022-10-19T07:59:58;10.60;99.90
4354;DHT22;11018;51.258;6.806;2022-10-19T08:02:24;10.70;99.90
4354;DHT22;11018;51.258;6.806;2022-10-19T08:04:50;10.80;99.90
4354;DHT22;11018;51.258;6.806;2022-10-19T08:07:15;10.90;99.90
4354;DHT22;11018;51.258;6.806;2022-10-19T08:09:41;10.90;99.90
4354;DHT22;11018;51.258;6.806;2022-10-19T08:12:06;11.00;99.90
4354;DHT22;11018;51.258;6.806;2022-10-19T08:14:32;11.00;99.90
4354;DHT22;11018;51.258;6.806;2022-10-19T08:16:58;11.20;99.90
4354;DHT22;11018;51.258;6.806;2022-10-19T08:19:23;11.30;99.90
4354;DHT22;11018;51.258;6.806;2022-10-19T08:21:49;11.50;93.10
4354;DHT22;11018;51.258;6.806;2022-10-19T08:24:16;11.80;87.70
4354;DHT22;11018;51.258;6.806;2022-10-19T08:26:42;12.00;86.60
4354;DHT22;11018;51.258;6.806;2022-10-19T08:29:13;12.10;86.80
4354;DHT22;11018;51.258;6.806;2022-10-19T08:31:40;12.00;88.70
4354;DHT22;11018;51.258;6.806;2022-10-19T08:34:06;12.10;83.30
4354;DHT22;11018;51.258;6.806;2022-10-19T08:36:32;12.30;80.10
4354;DHT22;11018;51.258;6.806;2022-10-19T08:39:00;12.50;75.50
4354;DHT22;11018;51.258;6.806;2022-10-19T08:46:37;12.70;67.00
4354;DHT22;11018;51.258;6.806;2022-10-19T08:49:17;12.70;67.90
4354;DHT22;11018;51.258;6.806;2022-10-19T08:51:43;12.80;64.80
4354;DHT22;11018;51.258;6.806;2022-10-19T08:54:15;12.80;61.10
4354;DHT22;11018;51.258;6.806;2022-10-19T08:56:49;12.90;66.40
4354;DHT22;11018;51.258;6.806;2022-10-19T08:59:23;12.80;64.20
4354;DHT22;11018;51.258;6.806;2022-10-19T09:04:22;13.10;62.40
4354;DHT22;11018;51.258;6.806;2022-10-19T09:10:13;13.20;60.60
4354;DHT22;11018;51.258;6.806;2022-10-19T09:12:57;13.40;60.80
4354;DHT22;11018;51.258;6.806;2022-10-19T09:15:48;13.40;58.90
4354;DHT22;11018;51.258;6.806;2022-10-19T09:20:50;13.50;58.00
4354;DHT22;11018;51.258;6.806;2022-10-19T09:26:15;13.60;57.90
4354;DHT22;11018;51.258;6.806;2022-10-19T09:29:08;13.70;58.40
4354;DHT22;11018;51.258;6.806;2022-10-19T09:31:38;13.80;51.90
4354;DHT22;11018;51.258;6.806;2022-10-19T09:36:46;14.00;52.90
4354;DHT22;11018;51.258;6.806;2022-10-19T09:39:13;14.10;49.80
4354;DHT22;11018;51.258;6.806;2022-10-19T09:41:57;14.20;48.50
4354;DHT22;11018;51.258;6.806;2022-10-19T09:44:24;14.30;49.00
4354;DHT22;11018;51.258;6.806;2022-10-19T09:49:39;14.40;45.70
4354;DHT22;11018;51.258;6.806;2022-10-19T09:52:34;14.50;44.30
4354;DHT22;11018;51.258;6.806;2022-10-19T09:55:02;14.50;44.10
4354;DHT22;11018;51.258;6.806;2022-10-19T09:57:29;14.60;45.30
4354;DHT22;11018;51.258;6.806;2022-10-19T09:59:54;14.50;46.70
4354;DHT22;11018;51.258;6.806;2022-10-19T10:02:28;14.40;46.00
4354;DHT22;11018;51.258;6.806;2022-10-19T10:04:57;14.40;46.50
4354;DHT22;11018;51.258;6.806;2022-10-19T10:07:33;14.70;42.80
4354;DHT22;11018;51.258;6.806;2022-10-19T10:09:59;14.70;45.60
4354;DHT22;11018;51.258;6.806;2022-10-19T10:12:25;14.70;44.20
4354;DHT22;11018;51.258;6.806;2022-10-19T10:14:51;14.80;43.40
4354;DHT22;11018;51.258;6.806;2022-10-19T10:17:25;14.80;43.00
4354;DHT22;11018;51.258;6.806;2022-10-19T10:22:30;14.90;40.20
4354;DHT22;11018;51.258;6.806;2022-10-19T10:24:56;15.00;42.10
4354;DHT22;11018;51.258;6.806;2022-10-19T10:29:55;15.40;39.10
4354;DHT22;11018;51.258;6.806;2022-10-19T10:32:21;15.30;38.40
4354;DHT22;11018;51.258;6.806;2022-10-19T10:35:03;15.20;38.60
4354;DHT22;11018;51.258;6.806;2022-10-19T10:37:42;15.40;38.50
4354;DHT22;11018;51.258;6.806;2022-10-19T10:40:25;15.40;37.40
4354;DHT22;11018;51.258;6.806;2022-10-19T10:42:54;15.40;37.10
4354;DHT22;11018;51.258;6.806;2022-10-19T10:45:30;15.50;38.60
4354;DHT22;11018;51.258;6.806;2022-10-19T10:47:57;15.70;36.50
4354;DHT22;11018;51.258;6.806;2022-10-19T10:50:32;15.90;35.90
4354;DHT22;11018;51.258;6.806;2022-10-19T10:53:05;15.80;35.60
4354;DHT22;11018;51.258;6.806;2022-10-19T10:55:32;15.70;36.20
4354;DHT22;11018;51.258;6.806;2022-10-19T10:58:19;16.00;37.00
4354;DHT22;11018;51.258;6.806;2022-10-19T11:00:47;16.10;35.40
4354;DHT22;11018;51.258;6.806;2022-10-19T11:03:23;16.20;35.70
4354;DHT22;11018;51.258;6.806;2022-10-19T11:05:57;16.30;35.00
4354;DHT22;11018;51.258;6.806;2022-10-19T11:08:50;16.30;33.00
4354;DHT22;11018;51.258;6.806;2022-10-19T11:11:27;16.30;33.30
4354;DHT22;11018;51.258;6.806;2022-10-19T11:16:32;16.40;34.20
4354;DHT22;11018;51.258;6.806;2022-10-19T11:19:28;16.60;32.90
4354;DHT22;11018;51.258;6.806;2022-10-19T11:31:08;16.50;33.90
4354;DHT22;11018;51.258;6.806;2022-10-19T11:33:47;16.40;35.20
4354;DHT22;11018;51.258;6.806;2022-10-19T11:39:14;16.50;35.40
4354;DHT22;11018;51.258;6.806;2022-10-19T11:41:48;16.60;35.80
4354;DHT22;11018;51.258;6.806;2022-10-19T11:44:33;16.70;34.70
4354;DHT22;11018;51.258;6.806;2022-10-19T11:47:26;16.80;34.30
4354;DHT22;11018;51.258;6.806;2022-10-19T11:53:11;16.70;34.40
4354;DHT22;11018;51.258;6.806;2022-10-19T11:58:36;16.80;35.50
4354;DHT22;11018;51.258;6.806;2022-10-19T12:01:48;16.90;35.40
4354;DHT22;11018;51.258;6.806;2022-10-19T12:04:32;17.10;34.80
4354;DHT22;11018;51.258;6.806;2022-10-19T12:10:32;16.90;32.60
4354;DHT22;11018;51.258;6.806;2022-10-19T12:13:04;17.00;33.70
4354;DHT22;11018;51.258;6.806;2022-10-19T12:18:10;17.30;31.50
4354;DHT22;11018;51.258;6.806;2022-10-19T12:20:43;17.40;32.30
4354;DHT22;11018;51.258;6.806;2022-10-19T12:23:24;17.50;31.50
4354;DHT22;11018;51.258;6.806;2022-10-19T12:25:53;17.40;31.60
4354;DHT22;11018;51.258;6.806;2022-10-19T12:28:27;17.30;32.20
4354;DHT22;11018;51.258;6.806;2022-10-19T12:30:53;17.40;31.90
4354;DHT22;11018;51.258;6.806;2022-10-19T12:33:21;17.50;31.30
4354;DHT22;11018;51.258;6.806;2022-10-19T12:38:30;17.50;30.60
4354;DHT22;11018;51.258;6.806;2022-10-19T12:46:50;17.60;30.10
4354;DHT22;11018;51.258;6.806;2022-10-19T12:51:59;17.60;29.40
4354;DHT22;11018;51.258;6.806;2022-10-19T12:54:27;17.70;28.40
4354;DHT22;11018;51.258;6.806;2022-10-19T12:56:56;17.60;29.20
4354;DHT22;11018;51.258;6.806;2022-10-19T12:59:30;17.60;29.70
4354;DHT22;11018;51.258;6.806;2022-10-19T13:01:56;17.60;30.70
4354;DHT22;11018;51.258;6.806;2022-10-19T13:14:58;17.80;28.50
4354;DHT22;11018;51.258;6.806;2022-10-19T13:25:38;17.80;28.30
4354;DHT22;11018;51.258;6.806;2022-10-19T13:41:03;17.90;27.00
4354;DHT22;11018;51.258;6.806;2022-10-19T14:02:21;18.90;24.50
4354;DHT22;11018;51.258;6.806;2022-10-19T14:05:13;19.00;24.40
4354;DHT22;11018;51.258;6.806;2022-10-19T14:08:02;18.80;24.20
4354;DHT22;11018;51.258;6.806;2022-10-19T14:10:33;18.70;24.50
4354;DHT22;11018;51.258;6.806;2022-10-19T14:12:59;18.50;25.00
4354;DHT22;11018;51.258;6.806;2022-10-19T14:15:29;18.50;25.10
4354;DHT22;11018;51.258;6.806;2022-10-19T14:17:56;18.60;25.00
4354;DHT22;11018;51.258;6.806;2022-10-19T14:22:51;18.60;25.30
4354;DHT22;11018;51.258;6.806;2022-10-19T14:25:25;18.60;26.20
4354;DHT22;11018;51.258;6.806;2022-10-19T14:28:04;18.50;27.30
4354;DHT22;11018;51.258;6.806;2022-10-19T14:30:32;18.30;28.80
4354;DHT22;11018;51.258;6.806;2022-10-19T14:33:00;18.10;29.70
4354;DHT22;11018;51.258;6.806;2022-10-19T14:35:27;18.00;30.30
4354;DHT22;11018;51.258;6.806;2022-10-19T14:37:53;17.90;31.20
4354;DHT22;11018;51.258;6.806;2022-10-19T14:40:29;17.80;31.10
4354;DHT22;11018;51.258;6.806;2022-10-19T14:42:57;17.70;32.10
4354;DHT22;11018;51.258;6.806;2022-10-19T14:45:30;17.70;32.90
4354;DHT22;11018;51.258;6.806;2022-10-19T14:48:04;17.50;33.40
4354;DHT22;11018;51.258;6.806;2022-10-19T14:50:52;17.40;34.10
4354;DHT22;11018;51.258;6.806;2022-10-19T14:53:40;17.50;33.50
4354;DHT22;11018;51.258;6.806;2022-10-19T14:56:14;17.60;33.70
4354;DHT22;11018;51.258;6.806;2022-10-19T14:58:49;17.60;33.70
4354;DHT22;11018;51.258;6.806;2022-10-19T15:01:18;17.90;33.20
4354;DHT22;11018;51.258;6.806;2022-10-19T15:03:45;18.10;32.30
4354;DHT22;11018;51.258;6.806;2022-10-19T15:06:20;18.40;31.10
4354;DHT22;11018;51.258;6.806;2022-10-19T15:08:50;18.70;30.80
4354;DHT22;11018;51.258;6.806;2022-10-19T15:11:42;19.00;28.90
4354;DHT22;11018;51.258;6.806;2022-10-19T15:14:20;19.10;28.40
4354;DHT22;11018;51.258;6.806;2022-10-19T15:16:58;19.40;27.90
4354;DHT22;11018;51.258;6.806;2022-10-19T15:19:27;19.50;27.30
4354;DHT22;11018;51.258;6.806;2022-10-19T15:24:40;19.70;26.90
4354;DHT22;11018;51.258;6.806;2022-10-19T15:27:20;19.60;26.90
4354;DHT22;11018;51.258;6.806;2022-10-19T15:29:54;19.20;27.90
4354;DHT22;11018;51.258;6.806;2022-10-19T15:32:23;18.60;29.60
4354;DHT22;11018;51.258;6.806;2022-10-19T15:34:50;18.20;31.10
4354;DHT22;11018;51.258;6.806;2022-10-19T15:37:19;17.80;32.60
4354;DHT22;11018;51.258;6.806;2022-10-19T15:39:45;17.60;33.80
4354;DHT22;11018;51.258;6.806;2022-10-19T15:42:39;17.40;34.50
4354;DHT22;11018;51.258;6.806;2022-10-19T15:45:33;17.10;36.00
4354;DHT22;11018;51.258;6.806;2022-10-19T15:50:45;16.80;37.40
4354;DHT22;11018;51.258;6.806;2022-10-19T15:53:13;16.70;39.50
4354;DHT22;11018;51.258;6.806;2022-10-19T15:55:39;16.50;39.40
4354;DHT22;11018;51.258;6.806;2022-10-19T15:58:05;16.30;40.10
4354;DHT22;11018;51.258;6.806;2022-10-19T16:00:31;16.10;41.70
4354;DHT22;11018;51.258;6.806;2022-10-19T16:02:56;15.90;42.90
4354;DHT22;11018;51.258;6.806;2022-10-19T16:05:22;15.70;44.90
4354;DHT22;11018;51.258;6.806;2022-10-19T16:07:48;15.40;46.40
4354;DHT22;11018;51.258;6.806;2022-10-19T16:10:25;15.30;48.00
4354;DHT22;11018;51.258;6.806;2022-10-19T16:12:51;15.10;49.20
4354;DHT22;11018;51.258;6.806;2022-10-19T16:15:19;15.00;50.90
4354;DHT22;11018;51.258;6.806;2022-10-19T16:17:50;14.90;52.00
4354;DHT22;11018;51.258;6.806;2022-10-19T16:20:16;14.70;52.80
4354;DHT22;11018;51.258;6.806;2022-10-19T16:22:43;14.50;54.90
4354;DHT22;11018;51.258;6.806;2022-10-19T16:25:09;14.40;56.30
4354;DHT22;11018;51.258;6.806;2022-10-19T16:27:35;14.30;57.10
4354;DHT22;11018;51.258;6.806;2022-10-19T16:30:01;14.30;57.40
4354;DHT22;11018;51.258;6.806;2022-10-19T16:32:26;14.20;57.70
4354;DHT22;11018;51.258;6.806;2022-10-19T16:34:52;14.20;57.20
4354;DHT22;11018;51.258;6.806;2022-10-19T16:37:17;14.10;59.10
4354;DHT22;11018;51.258;6.806;2022-10-19T16:39:43;14.00;60.90
4354;DHT22;11018;51.258;6.806;2022-10-19T16:42:08;13.80;63.00
4354;DHT22;11018;51.258;6.806;2022-10-19T16:44:34;13.70;64.70
4354;DHT22;11018;51.258;6.806;2022-10-19T16:47:00;13.60;65.90
4354;DHT22;11018;51.258;6.806;2022-10-19T16:49:25;13.40;68.50
4354;DHT22;11018;51.258;6.806;2022-10-19T16:51:51;13.50;67.50
4354;DHT22;11018;51.258;6.806;2022-10-19T16:54:17;13.30;67.80
4354;DHT22;11018;51.258;6.806;2022-10-19T16:56:44;13.00;71.00
4354;DHT22;11018;51.258;6.806;2022-10-19T16:59:15;12.80;73.00
4354;DHT22;11018;51.258;6.806;2022-10-19T17:01:42;12.70;75.90
4354;DHT22;11018;51.258;6.806;2022-10-19T17:04:09;12.90;75.00
4354;DHT22;11018;51.258;6.806;2022-10-19T17:06:36;13.00;77.40
4354;DHT22;11018;51.258;6.806;2022-10-19T17:09:02;13.00;76.30
4354;DHT22;11018;51.258;6.806;2022-10-19T17:11:31;12.80;77.20
4354;DHT22;11018;51.258;6.806;2022-10-19T17:13:59;12.70;78.60
4354;DHT22;11018;51.258;6.806;2022-10-19T17:16:26;12.70;79.30
4354;DHT22;11018;51.258;6.806;2022-10-19T17:18:54;12.60;79.20
4354;DHT22;11018;51.258;6.806;2022-10-19T17:21:22;12.50;80.80
4354;DHT22;11018;51.258;6.806;2022-10-19T17:23:57;12.40;83.30
4354;DHT22;11018;51.258;6.806;2022-10-19T17:26:31;12.30;83.70
4354;DHT22;11018;51.258;6.806;2022-10-19T17:28:58;12.20;85.10
4354;DHT22;11018;51.258;6.806;2022-10-19T17:31:24;12.20;85.00
4354;DHT22;11018;51.258;6.806;2022-10-19T17:33:50;12.20;86.20
4354;DHT22;11018;51.258;6.806;2022-10-19T17:36:21;12.10;86.70
4354;DHT22;11018;51.258;6.806;2022-10-19T17:38:51;12.10;87.30
4354;DHT22;11018;51.258;6.806;2022-10-19T17:41:18;12.00;87.80
4354;DHT22;11018;51.258;6.806;2022-10-19T17:43:45;12.10;88.20
4354;DHT22;11018;51.258;6.806;2022-10-19T17:46:14;12.30;86.00
4354;DHT22;11018;51.258;6.806;2022-10-19T17:48:41;12.30;84.90
4354;DHT22;11018;51.258;6.806;2022-10-19T17:51:15;12.30;84.70
4354;DHT22;11018;51.258;6.806;2022-10-19T17:53:42;12.10;86.10
4354;DHT22;11018;51.258;6.806;2022-10-19T17:56:09;12.10;87.60
4354;DHT22;11018;51.258;6.806;2022-10-19T17:58:35;12.00;87.60
4354;DHT22;11018;51.258;6.806;2022-10-19T18:01:01;11.90;89.30
4354;DHT22;11018;51.258;6.806;2022-10-19T18:03:29;11.90;89.10
4354;DHT22;11018;51.258;6.806;2022-10-19T18:06:03;12.10;87.00
4354;DHT22;11018;51.258;6.806;2022-10-19T18:08:31;12.00;88.00
4354;DHT22;11018;51.258;6.806;2022-10-19T18:11:05;11.90;88.80
4354;DHT22;11018;51.258;6.806;2022-10-19T18:13:32;11.90;90.80
4354;DHT22;11018;51.258;6.806;2022-10-19T18:18:36;11.80;89.30
4354;DHT22;11018;51.258;6.806;2022-10-19T18:21:04;11.70;91.80
4354;DHT22;11018;51.258;6.806;2022-10-19T18:23:30;11.90;90.50
4354;DHT22;11018;51.258;6.806;2022-10-19T18:26:21;11.80;92.20
4354;DHT22;11018;51.258;6.806;2022-10-19T18:28:47;11.90;91.30
4354;DHT22;11018;51.258;6.806;2022-10-19T18:31:18;12.00;88.40
4354;DHT22;11018;51.258;6.806;2022-10-19T18:33:48;12.20;84.10
4354;DHT22;11018;51.258;6.806;2022-10-19T18:36:14;12.00;84.30